Flight Track Log - Related Links

Times and Time Zones

All times are in EDT time to prevent confusion due to time zone crossing. See the SWA1728 flight status page for this flight to view local times or setup timezone preferences in your user account.

Time Position Orientation Groundspeed Altitude Reporting Facility
EDT Latitude Longitude Course Direction KTS MPH feet Rate Location/Type
Thu 06:39:31 PM 39.8833 -104.5333 90° East 233 268 8,000  Level Denver TRACON
Thu 06:40:38 PM 39.8833 -104.4167 90° East 272 313 10,500 1,867 Climbing Denver TRACON
Thu 06:41:01 PM 39.8742 -104.3889 113° Southeast 286 329 10,800 1,976 Climbing Denver Center
Thu 06:42:03 PM 39.8739 -104.2569 90° East 338 389 13,300 2,226 Climbing Denver Center
Thu 06:43:05 PM 39.8733 -104.1242 90° East 366 421 15,400 2,129 Climbing Denver Center
Thu 06:44:07 PM 39.8714 -103.9725 91° East 388 447 17,700 2,081 Climbing Denver Center
Thu 06:45:09 PM 39.8761 -103.8239 88° East 410 472 19,700 1,790 Climbing Denver Center
Thu 06:46:11 PM 39.8892 -103.6792 83° East 417 480 21,400 2,081 Climbing Denver Center
Thu 06:47:13 PM 39.9106 -103.5039 81° East 437 503 24,000 2,129 Climbing Denver Center
Thu 06:48:15 PM 39.9281 -103.3406 82° East 435 501 25,800 1,500 Climbing Denver Center
Thu 06:49:17 PM 39.9450 -103.1850 82° East 452 520 27,100 1,258 Climbing Denver Center
Thu 06:50:19 PM 39.9658 -102.9992 82° East 464 534 28,400 1,113 Climbing Denver Center
Thu 06:51:21 PM 39.9842 -102.8331 82° East 482 555 29,400 1,161 Climbing Denver Center
Thu 06:52:23 PM 40.0058 -102.6336 82° East 497 572 30,800 1,597 Climbing Denver Center
Thu 06:53:25 PM 40.0219 -102.4642 83° East 495 570 32,700 1,452 Climbing Denver Center
Thu 06:54:27 PM 40.0417 -102.2719 82° East 485 558 33,800 919 Climbing Denver Center
Thu 06:55:29 PM 40.0597 -102.1047 82° East 486 559 34,600 581 Climbing Denver Center
Thu 06:56:31 PM 40.0803 -101.9053 82° East 493 567 35,000 194 Climbing Denver Center
Thu 06:57:33 PM 40.0967 -101.7342 83° East 497 572 35,000  Level Denver Center
Thu 06:58:35 PM 40.1144 -101.5633 82° East 498 573 35,000  Level Denver Center
Thu 06:59:37 PM 40.1322 -101.3639 83° East 497 572 35,000  Level Denver Center
Thu 07:00:39 PM 40.1494 -101.1914 83° East 502 578 35,000  Level Denver Center
Thu 07:01:41 PM 40.1678 -100.9900 83° East 502 578 35,000  Level Denver Center
Thu 07:02:43 PM 40.1844 -100.8178 83° East 503 579 35,000  Level Denver Center
Thu 07:03:45 PM 40.2025 -100.6181 83° East 499 574 35,000  Level Denver Center
Thu 07:04:47 PM 40.2064 -100.4447 88° East 502 578 35,000  Level Denver Center
Thu 07:05:49 PM 40.2094 -100.2433 89° East 499 574 35,000  Level Denver Center
Thu 07:06:51 PM 40.2122 -100.0697 89° East 500 575 35,000  Level Denver Center
Thu 07:07:53 PM 40.2147 -99.8581 89° East 498 573 35,000  Level Denver Center
Thu 07:08:55 PM 40.2175 -99.6789 89° East 495 570 35,000  Level Denver Center
Thu 07:09:57 PM 40.2186 -99.4981 89° East 498 573 35,000  Level Denver Center
Thu 07:10:59 PM 40.2292 -99.3192 86° East 495 570 35,000  Level Denver Center
Thu 07:12:01 PM 40.2469 -99.1381 83° East 501 577 35,000  Level Denver Center
Thu 07:13:03 PM 40.2631 -98.9614 83° East 495 570 35,000  Level Denver Center
Thu 07:13:33 PM 40.2731 -98.8544 83° East 497 572 35,000  Level Minneapolis Center
Thu 07:14:36 PM 40.2883 -98.6744 84° East 499 574 35,000  Level Minneapolis Center
Thu 07:15:38 PM 40.3033 -98.4958 84° East 497 572 35,000  Level Minneapolis Center
Thu 07:16:40 PM 40.3214 -98.2775 84° East 502 578 35,000 387 Level Minneapolis Center
Thu 07:17:42 PM 40.3358 -98.0936 84° East 507 583 35,800 484 Climbing Minneapolis Center
Thu 07:18:44 PM 40.3508 -97.9089 84° East 510 587 36,000 581 Climbing Minneapolis Center
Thu 07:19:46 PM 40.3664 -97.7247 84° East 510 587 37,000 484 Climbing Minneapolis Center
Thu 07:20:48 PM 40.3803 -97.5411 84° East 508 585 37,000  Level Minneapolis Center
Thu 07:21:50 PM 40.3956 -97.3322 84° East 511 588 37,000  Level Minneapolis Center
Thu 07:22:52 PM 40.4092 -97.1481 84° East 510 587 37,000  Level Minneapolis Center
Thu 07:23:54 PM 40.4228 -96.9617 84° East 514 592 37,000  Level Minneapolis Center
Thu 07:24:56 PM 40.4369 -96.7753 84° East 515 593 37,000  Level Minneapolis Center
Thu 07:25:58 PM 40.4486 -96.5894 85° East 514 592 37,000  Level Minneapolis Center
Thu 07:27:00 PM 40.4631 -96.3669 85° East 513 590 37,000  Level Minneapolis Center
Thu 07:28:02 PM 40.4761 -96.1819 85° East 511 588 37,000  Level Minneapolis Center
Thu 07:29:05 PM 40.4875 -95.9981 85° East 511 588 37,000  Level Minneapolis Center
Thu 07:30:07 PM 40.5050 -95.8125 83° East 513 590 37,000  Level Minneapolis Center
Thu 07:31:09 PM 40.5303 -95.6328 79° East 506 582 37,000  Level Minneapolis Center
Thu 07:32:11 PM 40.5597 -95.4164 80° East 505 581 37,000  Level Minneapolis Center
Thu 07:33:13 PM 40.5828 -95.2361 80° East 503 579 37,000  Level Minneapolis Center
Thu 07:34:15 PM 40.6064 -95.0544 80° East 505 581 37,000  Level Minneapolis Center
Thu 07:35:17 PM 40.6289 -94.8747 81° East 503 579 37,000  Level Minneapolis Center
Thu 07:36:19 PM 40.6517 -94.6944 80° East 501 577 37,000  Level Minneapolis Center
Thu 07:37:21 PM 40.6739 -94.4925 82° East 502 578 37,000  Level Minneapolis Center
Thu 07:38:23 PM 40.6958 -94.3125 81° East 501 577 37,000  Level Minneapolis Center
Thu 07:39:25 PM 40.7175 -94.1328 81° East 501 577 37,000  Level Minneapolis Center
Thu 07:40:27 PM 40.7397 -93.9519 81° East 502 578 37,000  Level Minneapolis Center
Thu 07:41:29 PM 40.7628 -93.7369 82° East 498 573 37,000  Level Minneapolis Center
Thu 07:42:31 PM 40.7842 -93.5583 81° East 497 572 37,000  Level Minneapolis Center
Thu 07:43:33 PM 40.8042 -93.3781 82° East 498 573 37,000  Level Minneapolis Center
Thu 07:44:35 PM 40.8236 -93.1981 82° East 498 573 37,000  Level Minneapolis Center
Thu 07:45:37 PM 40.8431 -93.0178 82° East 499 574 37,000  Level Minneapolis Center
Thu 07:46:39 PM 40.8619 -92.8369 82° East 498 573 37,000  Level Minneapolis Center
Thu 07:47:02 PM 40.8700 -92.7639 82° East 496 571 37,000 -484 Level Chicago Center
Thu 07:47:41 PM 40.8856 -92.6197 82° East 498 573 36,500 -871 Descending Minneapolis Center
Thu 07:48:04 PM 40.8933 -92.5447 82° East 504 580 36,100 -988 Descending Chicago Center
Thu 07:49:06 PM 40.9117 -92.3642 82° East 499 574 35,100 -919 Descending Chicago Center
Thu 07:50:08 PM 40.9294 -92.1853 82° East 493 567 34,200 -864 Descending Chicago Center
Thu 07:51:11 PM 40.9472 -92.0028 83° East 500 575 33,300 -912 Descending Chicago Center
Thu 07:52:13 PM 40.9661 -91.8222 82° East 498 573 32,300 -919 Descending Chicago Center
Thu 07:53:15 PM 40.9844 -91.6303 83° East 499 574 31,400 -629 Descending Chicago Center
Thu 07:54:17 PM 41.0008 -91.4475 83° East 500 575 31,000 -194 Descending Chicago Center
Thu 07:55:19 PM 41.0181 -91.2650 83° East 500 575 31,000 -532 Level Chicago Center
Thu 07:56:21 PM 41.0381 -91.0458 83° East 499 574 29,900 -1,984 Descending Chicago Center
Thu 07:57:23 PM 41.0539 -90.8667 83° East 490 564 26,900 -2,806 Descending Chicago Center
Thu 07:58:25 PM 41.0689 -90.6900 84° East 484 557 24,100 -1,548 Descending Chicago Center
Thu 07:59:27 PM 41.0844 -90.5219 83° East 463 533 23,700 -726 Descending Chicago Center
Thu 08:00:29 PM 41.1003 -90.3578 83° East 453 521 22,600 -1,016 Descending Chicago Center
Thu 08:01:31 PM 41.1342 -90.2064 73° East 421 484 21,600 -1,161 Descending Chicago Center
Thu 08:02:33 PM 41.1681 -90.0614 73° East 411 473 20,200 -1,790 Descending Chicago Center
Thu 08:03:35 PM 41.2069 -89.8922 73° East 399 459 17,900 -2,208 Descending Chicago Center
Thu 08:04:38 PM 41.2372 -89.7531 74° East 392 451 15,600 -1,680 Descending Chicago Center
Thu 08:05:40 PM 41.2664 -89.6181 74° East 381 438 14,400 -1,065 Descending Chicago Center
Thu 08:06:42 PM 41.2961 -89.4869 73° East 371 427 13,400 -968 Descending Chicago Center
Thu 08:07:44 PM 41.3244 -89.3586 74° East 363 418 12,400 -968 Descending Chicago Center
Thu 08:08:46 PM 41.3522 -89.2311 74° East 359 413 11,400 -968 Descending Chicago Center
Thu 08:09:48 PM 41.3786 -89.1083 74° East 344 396 10,400 -919 Descending Chicago Center
Thu 08:10:50 PM 41.4053 -88.9736 75° East 316 364 9,500 -919 Descending Chicago Center
Thu 08:11:52 PM 41.4286 -88.8700 73° East 297 342 8,500 -968 Descending Chicago Center
Thu 08:12:54 PM 41.4517 -88.7653 74° East 297 342 7,500 -968 Descending Chicago Center
Thu 08:13:56 PM 41.4736 -88.6658 74° East 291 335 6,500 -726 Descending Chicago Center
Thu 08:14:58 PM 41.5011 -88.5675 69° East 286 329 6,000 -242 Descending Chicago Center
Thu 08:16:00 PM 41.5300 -88.4689 69° East 285 328 6,000 -484 Level Chicago Center
Thu 08:17:02 PM 41.5642 -88.3542 68° East 282 325 5,000 -484 Descending Chicago Center
Thu 08:18:04 PM 41.5775 -88.2600 79° East 272 313 5,000  Level Chicago Center
Thu 08:19:07 PM 41.5767 -88.1600 91° East 269 310 5,000  Level Chicago Center
Thu 08:20:09 PM 41.5667 -88.0589 97° East 270 311 5,000  Level Chicago Center
Thu 08:21:11 PM 41.5681 -87.9578 89° East 270 311 5,000  Level Chicago Center
Thu 08:22:13 PM 41.5736 -87.8592 86° East 267 307 5,000 -48 Level Chicago Center
Thu 08:23:15 PM 41.5794 -87.7614 85° East 266 306 4,900 -435 Descending Chicago Center
Thu 08:24:17 PM 41.6322 -87.6853 47° Northeast 241 277 4,100 -933 Descending Chicago Center
Thu 08:24:45 PM 41.6500 -87.6500 56° Northeast 222 255 3,500 -886 Descending Chicago TRACON
Thu 08:25:45 PM 41.7000 -87.6500 360° North 188 216 2,800 -800 Descending Chicago TRACON
Thu 08:26:45 PM 41.7333 -87.6833 323° Northwest 150 173 1,900 -800 Descending Chicago TRACON
Thu 08:27:45 PM 41.7667 -87.7167 323° Northwest 132 152 1,200 -700 Descending Chicago TRACON

Login

Don't have an account? Register now (free) for customized features, flight alerts, and more!